createdAt,value
2023-01-09T00:02:17.427Z,3.72
2023-01-09T00:04:44.658Z,4.10
2023-01-09T00:07:11.898Z,4.13
2023-01-09T00:09:39.143Z,3.97
2023-01-09T00:12:06.534Z,5.10
2023-01-09T00:14:33.780Z,4.15
2023-01-09T00:17:01.094Z,4.45
2023-01-09T00:19:28.465Z,4.65
2023-01-09T00:21:55.688Z,3.55
2023-01-09T00:24:22.904Z,3.35
2023-01-09T00:26:50.177Z,3.67
2023-01-09T00:29:17.466Z,3.05
2023-01-09T00:31:44.685Z,3.00
2023-01-09T00:34:12.188Z,3.03
2023-01-09T00:36:39.491Z,2.75
2023-01-09T00:39:06.846Z,2.88
2023-01-09T00:41:40.230Z,2.85
2023-01-09T00:44:13.048Z,2.88
2023-01-09T00:46:43.007Z,2.80
2023-01-09T00:49:10.545Z,2.90
2023-01-09T00:51:37.939Z,2.80
2023-01-09T00:54:05.693Z,3.20
2023-01-09T00:56:33.193Z,2.90
2023-01-09T00:59:00.529Z,2.63
2023-01-09T01:01:27.849Z,2.60
2023-01-09T01:03:55.633Z,2.88
2023-01-09T01:06:41.708Z,2.13
2023-01-09T01:09:08.935Z,2.35
2023-01-09T01:11:36.338Z,2.72
2023-01-09T01:14:03.543Z,3.05
2023-01-09T01:16:30.803Z,2.50
2023-01-09T01:18:58.130Z,2.83
2023-01-09T01:21:25.387Z,3.03
2023-01-09T01:23:52.612Z,3.00
2023-01-09T01:26:19.825Z,3.30
2023-01-09T01:28:47.032Z,3.00
2023-01-09T01:31:18.354Z,3.10
2023-01-09T01:33:45.679Z,2.70
2023-01-09T01:36:12.995Z,3.22
2023-01-09T01:38:40.251Z,3.05
2023-01-09T01:41:07.567Z,2.97
2023-01-09T01:43:51.043Z,3.10
2023-01-09T01:46:18.872Z,3.22
2023-01-09T01:48:47.199Z,3.42
2023-01-09T01:51:16.473Z,3.40
2023-01-09T01:53:51.989Z,3.17
2023-01-09T01:56:21.474Z,3.28
2023-01-09T01:58:51.015Z,2.95
2023-01-09T02:01:18.695Z,2.65
2023-01-09T02:03:46.530Z,3.10
2023-01-09T02:06:14.639Z,2.65
2023-01-09T02:08:42.447Z,2.58
2023-01-09T02:11:09.823Z,3.30
2023-01-09T02:13:41.449Z,2.83
2023-01-09T02:16:34.748Z,3.25
2023-01-09T02:19:16.556Z,3.40
2023-01-09T02:22:07.157Z,3.75
2023-01-09T02:24:46.699Z,3.92
2023-01-09T02:27:16.785Z,3.33
2023-01-09T02:29:43.978Z,3.38
2023-01-09T02:32:20.133Z,3.45
2023-01-09T02:34:53.279Z,3.78
2023-01-09T02:37:30.503Z,3.95
2023-01-09T02:40:00.486Z,3.55
2023-01-09T02:42:27.784Z,4.32
2023-01-09T02:44:55.022Z,3.75
2023-01-09T02:47:22.206Z,3.50
2023-01-09T02:49:51.420Z,3.63
2023-01-09T02:52:30.778Z,3.70
2023-01-09T02:55:17.819Z,3.80
2023-01-09T02:57:55.548Z,4.63
2023-01-09T03:00:41.783Z,4.65
2023-01-09T03:03:17.242Z,5.13
2023-01-09T03:08:14.274Z,5.05
2023-01-09T03:10:45.318Z,4.72
2023-01-09T03:13:14.998Z,4.90
2023-01-09T03:15:44.079Z,5.25
2023-01-09T03:18:12.458Z,5.32
2023-01-09T03:20:40.388Z,5.13
2023-01-09T03:23:08.193Z,5.68
2023-01-09T03:25:35.424Z,6.00
2023-01-09T03:28:06.737Z,5.28
2023-01-09T03:30:34.983Z,5.53
2023-01-09T03:33:02.243Z,5.57
2023-01-09T03:35:29.478Z,6.15
2023-01-09T03:37:56.683Z,5.40
2023-01-09T03:40:23.905Z,6.10
2023-01-09T03:42:51.176Z,5.75
2023-01-09T03:45:18.438Z,5.97
2023-01-09T03:47:45.835Z,5.15
2023-01-09T03:50:13.068Z,6.07
2023-01-09T03:52:40.364Z,5.65
2023-01-09T03:55:07.883Z,5.65
2023-01-09T03:57:35.094Z,7.38
2023-01-09T04:00:02.313Z,6.18
2023-01-09T04:02:29.559Z,6.32
2023-01-09T04:04:56.763Z,5.38
2023-01-09T04:07:23.987Z,5.65
2023-01-09T04:09:51.228Z,6.22
2023-01-09T04:12:18.460Z,6.43
2023-01-09T04:14:45.701Z,6.20
2023-01-09T04:17:12.957Z,5.72
2023-01-09T04:19:40.193Z,6.20
2023-01-09T04:22:07.500Z,6.72
2023-01-09T04:24:34.700Z,6.38
2023-01-09T04:27:01.939Z,6.20
2023-01-09T04:29:29.186Z,5.30
2023-01-09T04:31:56.450Z,5.93
2023-01-09T04:34:25.704Z,6.00
2023-01-09T04:36:54.039Z,5.63
2023-01-09T04:39:21.943Z,5.88
2023-01-09T04:41:49.176Z,6.70
2023-01-09T04:44:20.453Z,6.43
2023-01-09T04:46:47.714Z,6.90
2023-01-09T04:49:15.286Z,6.30
2023-01-09T04:51:42.501Z,6.93
2023-01-09T04:54:09.836Z,7.05
2023-01-09T04:56:37.346Z,7.07
2023-01-09T04:59:05.403Z,7.15
2023-01-09T05:01:32.706Z,7.28
2023-01-09T05:04:00.246Z,8.23
2023-01-09T05:06:27.553Z,7.70
2023-01-09T05:08:54.859Z,8.05
2023-01-09T05:11:22.105Z,9.27
2023-01-09T05:13:49.328Z,9.52
2023-01-09T05:16:16.585Z,8.13
2023-01-09T05:18:43.986Z,8.43
2023-01-09T05:21:11.624Z,8.68
2023-01-09T05:23:38.852Z,8.23
2023-01-09T05:26:07.010Z,8.00
2023-01-09T05:28:34.325Z,8.48
2023-01-09T05:31:01.606Z,7.75
2023-01-09T05:33:28.888Z,8.35
2023-01-09T05:35:56.111Z,8.57
2023-01-09T05:38:23.395Z,6.90
2023-01-09T05:40:50.654Z,6.82
2023-01-09T05:43:17.887Z,6.57
2023-01-09T05:45:45.210Z,6.43
2023-01-09T05:48:12.500Z,5.28
2023-01-09T05:50:39.739Z,4.63
2023-01-09T05:53:06.937Z,4.38
2023-01-09T05:55:34.717Z,4.10
2023-01-09T05:58:01.918Z,3.63
2023-01-09T06:00:29.238Z,2.85
2023-01-09T06:02:56.587Z,3.00
2023-01-09T06:05:23.943Z,2.30
2023-01-09T06:07:51.173Z,2.20
2023-01-09T06:10:18.562Z,2.22
2023-01-09T06:12:50.176Z,2.33
2023-01-09T06:15:17.769Z,2.08
2023-01-09T06:17:44.999Z,4.25
2023-01-09T06:20:12.479Z,2.03
2023-01-09T06:22:39.720Z,1.80
2023-01-09T06:25:07.201Z,1.70
2023-01-09T06:27:34.457Z,1.30
2023-01-09T06:30:01.687Z,1.15
2023-01-09T06:32:29.074Z,0.85
2023-01-09T06:34:56.275Z,0.73
2023-01-09T06:37:23.667Z,0.88
2023-01-09T06:39:51.026Z,0.80
2023-01-09T06:42:18.236Z,0.95
2023-01-09T06:44:45.528Z,0.60
2023-01-09T06:47:12.746Z,0.70
2023-01-09T06:49:39.974Z,0.93
2023-01-09T06:52:07.863Z,0.70
2023-01-09T06:54:35.790Z,0.63
2023-01-09T06:57:03.052Z,0.88
2023-01-09T06:59:30.315Z,0.50
2023-01-09T07:01:57.631Z,0.77
2023-01-09T07:04:25.060Z,0.90
2023-01-09T07:06:52.363Z,0.95
2023-01-09T07:09:19.641Z,0.90
2023-01-09T07:11:46.936Z,0.80
2023-01-09T07:14:14.199Z,0.90
2023-01-09T07:16:42.621Z,1.70
2023-01-09T07:19:09.879Z,1.83
2023-01-09T07:21:37.146Z,2.15
2023-01-09T07:24:04.395Z,3.95
2023-01-09T07:26:31.607Z,2.33
2023-01-09T07:28:58.840Z,3.08
2023-01-09T07:31:26.166Z,3.28
2023-01-09T07:33:53.490Z,2.63
2023-01-09T07:36:20.761Z,2.53
2023-01-09T07:38:47.991Z,2.17
2023-01-09T07:41:15.340Z,1.33
2023-01-09T07:43:42.595Z,2.50
2023-01-09T07:46:09.933Z,1.98
2023-01-09T07:48:37.270Z,1.45
2023-01-09T07:51:04.924Z,1.80
2023-01-09T07:53:32.110Z,1.88
2023-01-09T07:55:59.417Z,1.83
2023-01-09T07:58:26.624Z,1.60
2023-01-09T08:00:53.917Z,2.38
2023-01-09T08:03:21.143Z,2.35
2023-01-09T08:05:51.126Z,1.40
2023-01-09T08:08:18.634Z,1.10
2023-01-09T08:10:45.903Z,1.10
2023-01-09T08:13:13.183Z,0.52
2023-01-09T08:15:40.436Z,0.75
2023-01-09T08:18:07.735Z,0.60
2023-01-09T08:20:35.007Z,0.80
2023-01-09T08:23:02.246Z,2.10
2023-01-09T08:25:29.468Z,1.92
2023-01-09T08:27:56.675Z,1.95
2023-01-09T08:30:23.900Z,1.70
2023-01-09T08:32:51.847Z,1.55
2023-01-09T08:35:19.691Z,0.80
2023-01-09T08:37:47.668Z,1.27
2023-01-09T08:40:15.812Z,0.80
2023-01-09T08:43:01.862Z,0.55
2023-01-09T08:45:47.900Z,0.60
2023-01-09T08:48:15.279Z,0.70
2023-01-09T08:50:43.529Z,0.90
2023-01-09T08:53:11.259Z,0.52
2023-01-09T08:55:38.536Z,0.68
2023-01-09T08:58:05.903Z,1.00
2023-01-09T09:00:33.150Z,1.63
2023-01-09T09:03:01.779Z,0.90
2023-01-09T09:05:30.366Z,1.00
2023-01-09T09:07:57.574Z,1.08
2023-01-09T09:10:25.611Z,0.77
2023-01-09T09:12:54.120Z,1.60
2023-01-09T09:15:25.185Z,0.90
2023-01-09T09:17:56.385Z,0.93
2023-01-09T09:20:24.532Z,0.80
2023-01-09T09:22:51.856Z,0.55
2023-01-09T09:25:19.448Z,0.85
2023-01-09T09:27:46.768Z,0.77
2023-01-09T09:30:14.904Z,0.60
2023-01-09T09:32:42.176Z,1.00
2023-01-09T09:35:10.162Z,0.50
2023-01-09T09:37:37.446Z,0.90
2023-01-09T09:40:17.521Z,0.75
2023-01-09T09:43:14.577Z,1.17
2023-01-09T09:45:49.840Z,0.52
2023-01-09T09:50:44.161Z,0.77
2023-01-09T09:53:29.817Z,0.50
2023-01-09T09:58:40.416Z,0.50
2023-01-09T10:01:08.428Z,0.65
2023-01-09T10:03:47.493Z,0.70
2023-01-09T10:06:20.645Z,0.50
2023-01-09T10:08:51.847Z,0.70
2023-01-09T10:11:42.406Z,0.70
2023-01-09T10:14:23.338Z,0.50
2023-01-09T10:17:10.101Z,0.90
2023-01-09T10:19:37.308Z,0.47
2023-01-09T10:22:16.705Z,0.55
2023-01-09T10:24:46.668Z,1.00
2023-01-09T10:27:18.090Z,0.57
2023-01-09T10:29:45.323Z,0.60
2023-01-09T10:32:31.542Z,0.50
2023-01-09T10:35:42.776Z,0.63
2023-01-09T10:38:16.364Z,0.82
2023-01-09T10:40:47.688Z,0.65
2023-01-09T10:43:34.189Z,0.50
2023-01-09T10:46:03.662Z,0.40
2023-01-09T10:48:36.117Z,0.55
2023-01-09T10:51:04.565Z,0.50
2023-01-09T10:53:38.791Z,0.57
2023-01-09T10:56:24.826Z,0.45
2023-01-09T10:58:53.152Z,0.82
2023-01-09T11:01:25.557Z,0.65
2023-01-09T11:03:52.900Z,0.57
2023-01-09T11:06:25.794Z,0.98
2023-01-09T11:08:55.048Z,0.40
2023-01-09T11:11:33.196Z,0.60
2023-01-09T11:14:19.159Z,0.47
2023-01-09T11:16:53.624Z,0.60
2023-01-09T11:19:21.272Z,0.50
2023-01-09T11:21:48.480Z,0.60
2023-01-09T11:24:15.682Z,0.85
2023-01-09T11:26:42.908Z,0.70
2023-01-09T11:29:13.324Z,0.43
2023-01-09T11:31:41.681Z,0.50
2023-01-09T11:34:18.807Z,2.17
2023-01-09T11:36:46.868Z,0.73
2023-01-09T11:39:24.201Z,0.40
2023-01-09T11:41:56.277Z,0.47
2023-01-09T11:44:24.084Z,0.30
2023-01-09T11:46:51.655Z,2.15
2023-01-09T11:49:19.860Z,3.03
2023-01-09T11:51:47.277Z,0.70
2023-01-09T11:54:20.657Z,2.60
2023-01-09T11:56:48.599Z,2.00
2023-01-09T11:59:17.523Z,0.60
2023-01-09T12:02:23.209Z,0.43
2023-01-09T12:04:59.221Z,1.00
2023-01-09T12:07:44.753Z,2.33
2023-01-09T12:10:41.246Z,3.28
2023-01-09T12:13:20.483Z,2.83
2023-01-09T12:16:02.811Z,0.60
2023-01-09T12:18:36.122Z,0.80
2023-01-09T12:21:26.408Z,0.60
2023-01-09T12:24:12.230Z,0.50
2023-01-09T12:26:42.582Z,1.00
2023-01-09T12:29:12.562Z,1.25
2023-01-09T12:31:45.985Z,0.90
2023-01-09T12:34:13.244Z,0.70
2023-01-09T12:36:48.645Z,0.40
2023-01-09T12:39:24.718Z,0.50
2023-01-09T12:41:57.985Z,0.52
2023-01-09T12:44:54.677Z,0.52
2023-01-09T12:47:30.710Z,0.60
2023-01-09T12:50:10.156Z,0.80
2023-01-09T12:52:43.560Z,0.77
2023-01-09T12:55:16.592Z,0.50
2023-01-09T12:57:45.738Z,0.50
2023-01-09T13:00:22.348Z,0.50
2023-01-09T13:03:00.594Z,0.73
2023-01-09T13:05:43.490Z,0.60
2023-01-09T13:08:16.422Z,0.40
2023-01-09T13:10:46.219Z,0.70
2023-01-09T13:13:19.310Z,0.80
2023-01-09T13:15:48.595Z,0.60
2023-01-09T13:18:22.214Z,0.32
2023-01-09T13:20:56.766Z,0.50
2023-01-09T13:23:42.536Z,0.50
2023-01-09T13:26:12.023Z,0.60
2023-01-09T13:28:47.920Z,0.60
2023-01-09T13:31:35.717Z,0.70
2023-01-09T13:34:04.596Z,0.30
2023-01-09T13:36:35.625Z,0.60
2023-01-09T13:39:03.484Z,0.60
2023-01-09T13:41:50.502Z,0.50
2023-01-09T13:44:20.839Z,0.60
2023-01-09T13:46:53.394Z,0.50
2023-01-09T13:49:46.995Z,0.70
2023-01-09T13:52:31.325Z,0.47
2023-01-09T13:54:58.806Z,0.50
2023-01-09T13:57:29.004Z,0.50
2023-01-09T14:00:00.052Z,0.50
2023-01-09T14:02:36.953Z,0.60
2023-01-09T14:05:05.919Z,0.60
2023-01-09T14:07:34.197Z,3.42
2023-01-09T14:10:06.540Z,1.00
2023-01-09T14:12:40.748Z,0.70
2023-01-09T14:15:08.611Z,0.60
2023-01-09T14:17:37.149Z,0.70
2023-01-09T14:20:10.029Z,0.82
2023-01-09T14:22:46.129Z,1.02
2023-01-09T14:25:25.258Z,0.60
2023-01-09T14:27:55.516Z,0.65
2023-01-09T14:30:28.627Z,0.40
2023-01-09T14:33:03.451Z,0.60
2023-01-09T14:35:43.210Z,0.47
2023-01-09T14:38:29.409Z,0.60
2023-01-09T14:41:02.706Z,0.50
2023-01-09T14:43:39.538Z,1.25
2023-01-09T14:46:11.828Z,0.30
2023-01-09T14:48:42.676Z,0.45
2023-01-09T14:51:15.861Z,0.55
2023-01-09T14:53:43.526Z,1.30
2023-01-09T14:56:25.042Z,1.00
2023-01-09T14:59:03.686Z,1.55
2023-01-09T15:01:32.680Z,1.83
2023-01-09T15:04:02.044Z,3.00
2023-01-09T15:06:30.517Z,0.90
2023-01-09T15:08:57.844Z,0.65
2023-01-09T15:11:25.792Z,1.95
2023-01-09T15:13:54.132Z,1.60
2023-01-09T15:16:22.649Z,0.80
2023-01-09T15:18:52.137Z,0.70
2023-01-09T15:21:21.202Z,0.85
2023-01-09T15:23:48.473Z,0.90
2023-01-09T15:26:35.940Z,1.45
2023-01-09T15:29:15.524Z,0.95
2023-01-09T15:31:44.417Z,0.68
2023-01-09T15:34:16.546Z,0.85
2023-01-09T15:36:43.990Z,1.58
2023-01-09T15:39:11.264Z,1.10
2023-01-09T15:41:57.467Z,0.90
2023-01-09T15:44:27.262Z,1.10
2023-01-09T15:46:58.451Z,2.30
2023-01-09T15:49:26.098Z,2.97
2023-01-09T15:51:53.899Z,2.85
2023-01-09T15:54:26.214Z,1.67
2023-01-09T15:56:53.444Z,1.20
2023-01-09T15:59:25.152Z,0.60
2023-01-09T16:02:18.556Z,1.00
2023-01-09T16:04:46.707Z,0.70
2023-01-09T16:07:16.235Z,3.03
2023-01-09T16:09:52.939Z,2.47
2023-01-09T16:12:25.616Z,3.90
2023-01-09T16:14:57.647Z,1.83
2023-01-09T16:17:26.690Z,1.20
2023-01-09T16:19:58.252Z,2.38
2023-01-09T16:22:29.321Z,1.15
2023-01-09T16:24:57.915Z,0.80
2023-01-09T16:27:26.204Z,1.25
2023-01-09T16:30:02.863Z,1.25
2023-01-09T16:32:31.864Z,1.10
2023-01-09T16:35:05.468Z,0.80
2023-01-09T16:37:33.139Z,0.77
2023-01-09T16:40:00.341Z,1.67
2023-01-09T16:43:02.806Z,1.10
2023-01-09T16:45:37.673Z,1.52
2023-01-09T16:48:11.644Z,1.05
2023-01-09T16:50:39.076Z,1.40
2023-01-09T16:53:16.478Z,0.90
2023-01-09T16:55:43.953Z,0.88
2023-01-09T16:58:19.395Z,0.70
2023-01-09T17:00:47.983Z,0.70
2023-01-09T17:03:15.798Z,1.23
2023-01-09T17:05:43.598Z,1.00
2023-01-09T17:08:27.714Z,1.20
2023-01-09T17:10:55.739Z,2.70
2023-01-09T17:13:23.400Z,3.78
2023-01-09T17:15:51.222Z,4.32
2023-01-09T17:18:19.854Z,3.08
2023-01-09T17:20:48.396Z,2.17
2023-01-09T17:23:16.412Z,2.25
2023-01-09T17:26:02.524Z,3.67
2023-01-09T17:28:33.852Z,4.05
2023-01-09T17:31:01.735Z,2.65
2023-01-09T17:33:29.210Z,2.42
2023-01-09T17:35:57.391Z,2.72
2023-01-09T17:38:24.706Z,1.50
2023-01-09T17:40:52.736Z,1.92
2023-01-09T17:43:19.980Z,1.02
2023-01-09T17:45:47.267Z,1.20
2023-01-09T17:48:16.091Z,1.10
2023-01-09T17:50:43.788Z,1.67
2023-01-09T17:53:11.144Z,1.75
2023-01-09T17:55:38.804Z,1.50
2023-01-09T17:58:06.115Z,1.70
2023-01-09T18:00:36.815Z,1.90
2023-01-09T18:03:07.994Z,2.20
2023-01-09T18:05:37.114Z,1.45
2023-01-09T18:08:05.893Z,1.60
2023-01-09T18:10:33.157Z,1.88
2023-01-09T18:13:00.450Z,1.67
2023-01-09T18:15:27.769Z,1.80
2023-01-09T18:17:55.153Z,2.08
2023-01-09T18:20:22.466Z,1.98
2023-01-09T18:22:49.778Z,1.73
2023-01-09T18:25:17.187Z,2.30
2023-01-09T18:27:44.685Z,1.65
2023-01-09T18:30:12.221Z,1.80
2023-01-09T18:32:39.525Z,2.28
2023-01-09T18:35:07.690Z,1.75
2023-01-09T18:37:36.279Z,1.80
2023-01-09T18:40:03.677Z,2.60
2023-01-09T18:42:30.992Z,2.65
2023-01-09T18:44:58.195Z,2.45
2023-01-09T18:47:25.464Z,2.40
2023-01-09T18:49:52.668Z,2.33
2023-01-09T18:52:19.916Z,2.58
2023-01-09T18:54:47.169Z,2.25
2023-01-09T18:57:14.393Z,2.60
2023-01-09T18:59:41.621Z,2.60
2023-01-09T19:02:18.165Z,2.08
2023-01-09T19:04:45.411Z,1.80
2023-01-09T19:07:12.634Z,2.13
2023-01-09T19:09:39.886Z,1.80
2023-01-09T19:12:07.247Z,1.90
2023-01-09T19:14:34.509Z,2.20
2023-01-09T19:17:01.834Z,1.98
2023-01-09T19:19:31.902Z,2.25
2023-01-09T19:21:59.219Z,1.95
2023-01-09T19:24:26.873Z,2.60
2023-01-09T19:26:54.178Z,2.03
2023-01-09T19:29:21.409Z,1.70
2023-01-09T19:31:48.895Z,2.55
2023-01-09T19:34:17.595Z,2.05
2023-01-09T19:36:45.034Z,2.88
2023-01-09T19:39:12.398Z,3.75
2023-01-09T19:41:39.894Z,3.33
2023-01-09T19:44:07.387Z,3.33
2023-01-09T19:46:35.588Z,4.10
2023-01-09T19:49:05.076Z,3.55
2023-01-09T19:51:33.121Z,3.00
2023-01-09T19:56:31.840Z,2.85
2023-01-09T19:59:00.333Z,3.42
2023-01-09T20:01:28.852Z,2.83
2023-01-09T20:03:56.795Z,5.03
2023-01-09T20:06:26.444Z,2.65
2023-01-09T20:08:58.048Z,2.97
2023-01-09T20:11:26.223Z,2.60
2023-01-09T20:13:53.479Z,2.47
2023-01-09T20:16:22.066Z,3.30
2023-01-09T20:18:49.546Z,3.13
2023-01-09T20:23:50.991Z,4.00
2023-01-09T20:26:18.502Z,6.85
2023-01-09T20:28:46.168Z,4.85
2023-01-09T20:31:16.309Z,9.95
2023-01-09T20:33:44.169Z,8.23
2023-01-09T20:36:11.699Z,4.60
2023-01-09T20:38:39.523Z,6.20
2023-01-09T20:41:08.425Z,4.60
2023-01-09T20:43:36.125Z,5.05
2023-01-09T20:46:06.240Z,4.85
2023-01-09T20:48:34.071Z,6.18
2023-01-09T20:51:05.537Z,17.80
2023-01-09T20:53:32.870Z,4.25
2023-01-09T20:56:01.173Z,3.60
2023-01-09T20:58:28.849Z,6.78
2023-01-09T21:00:56.121Z,6.55
2023-01-09T21:03:23.743Z,3.22
2023-01-09T21:05:51.068Z,3.22
2023-01-09T21:08:18.325Z,2.80
2023-01-09T21:10:45.547Z,3.00
2023-01-09T21:13:13.789Z,2.88
2023-01-09T21:15:41.322Z,3.42
2023-01-09T21:18:08.713Z,3.60
2023-01-09T21:20:36.024Z,3.25
2023-01-09T21:23:03.400Z,3.38
2023-01-09T21:25:30.950Z,3.13
2023-01-09T21:27:58.505Z,3.53
2023-01-09T21:30:25.839Z,2.92
2023-01-09T21:32:53.712Z,2.97
2023-01-09T21:35:21.045Z,3.65
2023-01-09T21:37:48.341Z,3.20
2023-01-09T21:40:18.485Z,4.22
2023-01-09T21:43:04.917Z,3.58
2023-01-09T21:45:51.187Z,3.58
2023-01-09T21:48:18.502Z,4.40
2023-01-09T21:50:45.875Z,3.30
2023-01-09T21:53:13.292Z,4.13
2023-01-09T21:55:40.598Z,3.80
2023-01-09T21:58:07.879Z,4.65
2023-01-09T22:00:35.207Z,3.58
2023-01-09T22:03:02.574Z,4.60
2023-01-09T22:05:29.832Z,3.53
2023-01-09T22:07:57.165Z,7.65
2023-01-09T22:10:24.459Z,4.70
2023-01-09T22:13:11.077Z,4.18
2023-01-09T22:15:40.476Z,3.92
2023-01-09T22:18:07.748Z,3.60
2023-01-09T22:20:35.026Z,3.72
2023-01-09T22:23:02.685Z,3.47
2023-01-09T22:25:30.041Z,4.50
2023-01-09T22:27:57.272Z,4.43
2023-01-09T22:30:24.666Z,3.67
2023-01-09T22:32:51.986Z,3.55
2023-01-09T22:35:19.239Z,3.40
2023-01-09T22:37:46.528Z,3.60
2023-01-09T22:40:14.052Z,2.53
2023-01-09T22:42:41.366Z,2.65
2023-01-09T22:45:08.968Z,2.20
2023-01-09T22:47:36.244Z,2.45
2023-01-09T22:50:03.676Z,1.77
2023-01-09T22:52:31.001Z,1.88
2023-01-09T22:54:58.229Z,1.80
2023-01-09T22:57:25.514Z,1.58
2023-01-09T22:59:52.811Z,2.13
2023-01-09T23:02:20.257Z,2.03
2023-01-09T23:04:47.854Z,1.60
2023-01-09T23:07:15.813Z,2.47
2023-01-09T23:09:43.155Z,2.00
2023-01-09T23:12:10.462Z,2.60
2023-01-09T23:14:38.576Z,2.10
2023-01-09T23:17:06.768Z,2.08
2023-01-09T23:19:35.381Z,2.45
2023-01-09T23:22:03.459Z,2.53
2023-01-09T23:24:31.263Z,2.17
2023-01-09T23:26:59.082Z,2.60
2023-01-09T23:29:26.674Z,2.55
2023-01-09T23:31:54.097Z,2.70
2023-01-09T23:34:29.013Z,2.72
2023-01-09T23:36:57.682Z,2.33
2023-01-09T23:39:25.126Z,2.63
2023-01-09T23:42:11.156Z,3.13
2023-01-09T23:44:38.427Z,2.65
2023-01-09T23:47:05.844Z,2.90
2023-01-09T23:49:33.252Z,2.28
2023-01-09T23:52:02.535Z,2.42
2023-01-09T23:54:29.850Z,2.63
2023-01-09T23:56:57.160Z,2.42
2023-01-09T23:59:24.479Z,3.00
